Time;durP1;ratioP1;P1;durP2;ratioP2;P2;SDS_P1;SDS_P2;PMS_P1;PMS_P2;Temp;Humidity;BMP_temperature;BMP_pressure;BME280_temperature;BME280_humidity;BME280_pressure;Samples;Min_cycle;Max_cycle;Signal;HPM_P1;HPM_P2
2022/06/11 00:00:07;;;;;;;7.45;4.38;;;;;;;13.91;99.54;101959.78;10503093;28;20400;-78
2022/06/11 00:05:08;;;;;;;10.32;4.13;;;;;;;13.79;99.96;101953.06;10486766;28;20369;-79
2022/06/11 00:10:10;;;;;;;8.30;4.50;;;;;;;13.62;100.00;101949.56;10508186;28;20044;-78
2022/06/11 00:15:10;;;;;;;11.63;5.00;;;;;;;13.51;100.00;101940.22;10526697;28;20043;-78
2022/06/11 00:20:11;;;;;;;7.55;5.43;;;;;;;13.39;100.00;101945.69;10485648;28;20480;-77
2022/06/11 00:25:12;;;;;;;10.73;4.30;;;;;;;13.29;100.00;101944.31;10487747;28;20032;-78
2022/06/11 00:30:12;;;;;;;7.78;5.30;;;;;;;13.19;100.00;101947.25;10464337;28;20112;-78
2022/06/11 00:35:13;;;;;;;10.60;5.00;;;;;;;13.13;100.00;101950.44;10510994;28;20476;-77
2022/06/11 00:40:18;;;;;;;10.43;6.35;;;;;;;13.06;100.00;101951.84;10457125;28;20428;-79
2022/06/11 00:45:34;;;;;;;6.55;4.63;;;;;;;12.99;100.00;101960.22;10450975;28;20043;-78
2022/06/11 00:50:44;;;;;;;21.52;7.25;;;;;;;12.96;100.00;101954.78;10526310;28;20082;-78
2022/06/11 00:55:44;;;;;;;11.32;5.97;;;;;;;13.00;100.00;101964.66;10510800;28;20093;-78
2022/06/11 01:00:52;;;;;;;9.90;5.68;;;;;;;12.90;100.00;101960.59;10493293;28;20553;-79
2022/06/11 01:06:08;;;;;;;10.43;6.28;;;;;;;12.77;100.00;101952.84;10489750;28;20043;-78
2022/06/11 01:11:30;;;;;;;10.70;5.90;;;;;;;12.75;100.00;101958.03;10520853;28;20476;-78
2022/06/11 01:16:52;;;;;;;17.55;7.47;;;;;;;12.66;100.00;101954.88;10499518;28;20103;-79
2022/06/11 01:22:27;;;;;;;13.23;6.63;;;;;;;12.61;100.00;101961.59;10471402;28;20047;-78
2022/06/11 01:27:30;;;;;;;16.50;7.22;;;;;;;12.61;100.00;101951.97;10448963;28;20032;-78
2022/06/11 01:32:43;;;;;;;14.38;9.10;;;;;;;12.62;100.00;101950.28;10499663;28;20036;-78
2022/06/11 01:38:00;;;;;;;23.83;6.88;;;;;;;12.57;100.00;101946.47;10520134;28;20036;-79
2022/06/11 01:43:10;;;;;;;10.20;7.53;;;;;;;12.50;100.00;101945.22;10488623;28;20043;-78
2022/06/11 01:48:14;;;;;;;8.68;7.13;;;;;;;12.41;100.00;101944.69;10492433;28;20119;-79
2022/06/11 01:53:36;;;;;;;9.32;7.15;;;;;;;12.31;100.00;101941.53;10483986;28;20028;-78
2022/06/11 01:58:55;;;;;;;15.57;7.70;;;;;;;12.25;100.00;101942.91;10509609;28;20072;-78
2022/06/11 02:04:24;;;;;;;13.38;8.15;;;;;;;12.25;100.00;101943.81;10511709;28;20044;-78
2022/06/11 02:09:48;;;;;;;20.92;8.93;;;;;;;12.23;100.00;101944.53;10486881;28;20050;-80
2022/06/11 02:15:29;;;;;;;14.15;8.00;;;;;;;12.19;100.00;101938.19;10505932;28;20067;-79
2022/06/11 02:20:35;;;;;;;18.60;8.85;;;;;;;12.11;100.00;101944.72;10487413;28;20036;-79
2022/06/11 02:25:56;;;;;;;17.60;8.40;;;;;;;12.00;100.00;101950.22;10488549;28;20089;-79
2022/06/11 02:30:59;;;;;;;11.48;9.00;;;;;;;12.00;100.00;101939.75;10511066;28;20047;-78
2022/06/11 02:36:12;;;;;;;11.90;8.45;;;;;;;12.07;100.00;101940.09;10501184;28;20452;-79
2022/06/11 02:41:16;;;;;;;15.65;8.32;;;;;;;12.11;100.00;101942.09;10511185;28;20041;-78
2022/06/11 02:51:36;;;;;;;19.23;10.15;;;;;;;11.98;100.00;101938.72;10476220;28;20476;-78
2022/06/11 02:56:36;;;;;;;14.55;8.15;;;;;;;11.93;100.00;101950.66;10528688;28;20122;-78
2022/06/11 03:01:37;;;;;;;13.18;8.65;;;;;;;11.97;100.00;101954.38;10529335;28;20423;-78
2022/06/11 03:06:40;;;;;;;11.25;8.27;;;;;;;11.99;100.00;101955.38;10496985;28;20039;-78
2022/06/11 03:11:41;;;;;;;12.88;7.85;;;;;;;11.83;100.00;101970.19;10501792;28;20109;-78
2022/06/11 03:16:42;;;;;;;10.85;8.00;;;;;;;11.79;100.00;101969.91;10513831;28;20121;-79
2022/06/11 03:21:43;;;;;;;15.40;7.70;;;;;;;11.79;100.00;101962.03;10507206;28;20044;-79
2022/06/11 03:26:44;;;;;;;14.70;9.43;;;;;;;11.83;100.00;101961.41;10473357;28;20518;-79
2022/06/11 03:31:45;;;;;;;14.63;9.77;;;;;;;11.96;100.00;101968.31;10472473;28;20399;-80
2022/06/11 03:36:45;;;;;;;13.02;8.93;;;;;;;12.14;100.00;101974.69;10511911;28;20036;-80
2022/06/11 03:41:47;;;;;;;15.48;10.02;;;;;;;12.33;100.00;101984.53;10476130;28;20036;-78
2022/06/11 03:46:48;;;;;;;19.87;11.57;;;;;;;12.50;100.00;101989.84;10515511;28;20040;-78
2022/06/11 03:51:49;;;;;;;45.03;17.63;;;;;;;12.71;100.00;101991.91;10454091;28;20120;-77
2022/06/11 03:56:50;;;;;;;21.65;10.90;;;;;;;12.83;100.00;101984.72;10479429;28;20036;-75
2022/06/11 04:01:50;;;;;;;12.55;8.45;;;;;;;13.02;100.00;101985.75;10471024;28;20041;-77
2022/06/11 04:06:53;;;;;;;13.18;9.15;;;;;;;13.13;100.00;101989.88;10509681;28;20032;-78
2022/06/11 04:11:53;;;;;;;19.05;11.25;;;;;;;13.26;100.00;101994.09;10488082;28;20049;-77
2022/06/11 04:16:58;;;;;;;11.02;8.18;;;;;;;13.27;100.00;101997.59;10503104;28;20492;-77
2022/06/11 04:21:59;;;;;;;14.93;9.27;;;;;;;13.34;100.00;102000.66;10524009;28;20086;-77
2022/06/11 04:27:00;;;;;;;13.13;8.10;;;;;;;13.42;100.00;102011.63;10525080;28;20127;-77
2022/06/11 04:32:02;;;;;;;10.13;6.97;;;;;;;13.48;100.00;102004.06;10500899;28;20044;-77
2022/06/11 04:37:03;;;;;;;9.97;7.17;;;;;;;13.63;100.00;102011.88;10516394;28;20040;-77
2022/06/11 04:42:04;;;;;;;16.20;6.82;;;;;;;13.75;100.00;102009.00;10464982;28;20042;-77
2022/06/11 04:47:05;;;;;;;10.52;7.65;;;;;;;13.91;100.00;102013.34;10494187;28;20561;-77
2022/06/11 04:52:06;;;;;;;11.90;7.47;;;;;;;14.05;100.00;102010.53;10475401;28;20045;-77
2022/06/11 04:57:06;;;;;;;16.75;9.45;;;;;;;14.26;100.00;102008.06;10480847;28;20488;-77
2022/06/11 05:02:07;;;;;;;10.93;7.70;;;;;;;14.38;100.00;102016.59;10483986;28;20040;-77
2022/06/11 05:07:07;;;;;;;10.95;6.38;;;;;;;14.58;100.00;102015.81;10511122;28;20035;-76
2022/06/11 05:12:15;;;;;;;8.45;5.72;;;;;;;14.78;100.00;102016.78;10430609;28;20479;-78
2022/06/11 05:17:16;;;;;;;7.70;5.50;;;;;;;15.01;100.00;102019.63;10422740;28;20041;-78
2022/06/11 05:22:17;;;;;;;7.88;5.38;;;;;;;15.09;100.00;102021.84;10435415;28;20405;-78
2022/06/11 05:27:19;;;;;;;13.30;7.07;;;;;;;15.19;100.00;102017.88;10416472;28;20037;-77
2022/06/11 05:32:27;;;;;;;6.57;4.80;;;;;;;15.35;100.00;102019.50;10430335;28;20805;-75
2022/06/11 05:37:27;;;;;;;12.38;5.65;;;;;;;15.65;100.00;102019.13;10430371;28;20043;-75
2022/06/11 05:42:28;;;;;;;11.98;5.97;;;;;;;15.89;98.24;102025.44;10427908;28;20043;-76
2022/06/11 05:47:29;;;;;;;10.85;5.88;;;;;;;16.04;95.22;102020.84;10432300;28;20099;-77
2022/06/11 05:52:32;;;;;;;12.43;6.68;;;;;;;16.31;93.51;102033.41;10432604;28;20078;-78
2022/06/11 05:57:33;;;;;;;17.10;9.40;;;;;;;16.63;91.53;102028.59;10416754;28;20098;-78
2022/06/11 06:02:34;;;;;;;20.25;14.70;;;;;;;16.82;90.13;102032.91;10432200;28;20378;-77
2022/06/11 06:07:34;;;;;;;14.10;6.63;;;;;;;16.97;87.09;102035.28;10438170;28;20072;-78
2022/06/11 06:12:35;;;;;;;8.68;5.22;;;;;;;17.21;87.53;102034.44;10500214;28;20040;-77
2022/06/11 06:17:36;;;;;;;8.27;5.20;;;;;;;17.45;85.26;102044.16;10497926;28;20044;-78
2022/06/11 06:22:37;;;;;;;11.30;5.53;;;;;;;17.99;81.10;102037.31;10419117;28;20025;-78
2022/06/11 06:27:37;;;;;;;11.05;5.88;;;;;;;18.33;80.09;102039.44;10429283;28;20500;-79
2022/06/11 06:32:38;;;;;;;8.65;4.82;;;;;;;18.92;77.61;102048.41;10454549;28;20173;-78
2022/06/11 06:37:38;;;;;;;6.53;4.18;;;;;;;19.15;73.86;102040.28;10439240;28;20100;-78
2022/06/11 06:42:39;;;;;;;12.02;4.72;;;;;;;19.58;70.41;102046.00;10434441;28;20036;-77
2022/06/11 06:47:39;;;;;;;6.10;4.35;;;;;;;19.72;68.36;102041.09;10467089;28;20124;-78
2022/06/11 06:52:40;;;;;;;7.90;3.65;;;;;;;19.76;68.88;102056.25;10486365;28;20071;-78
2022/06/11 06:57:41;;;;;;;8.90;3.30;;;;;;;19.61;66.92;102067.34;10487681;28;20043;-77
2022/06/11 07:02:41;;;;;;;5.25;2.50;;;;;;;19.69;66.76;102059.59;10487819;28;20510;-78
2022/06/11 07:07:42;;;;;;;14.57;3.58;;;;;;;19.97;64.03;102058.66;10488158;28;20051;-78
2022/06/11 07:12:42;;;;;;;7.03;3.30;;;;;;;20.35;65.82;102069.44;10469682;28;20041;-78
2022/06/11 07:17:45;;;;;;;5.13;2.83;;;;;;;20.80;63.45;102067.91;10469716;28;20048;-77
2022/06/11 07:23:00;;;;;;;7.38;2.58;;;;;;;21.44;59.22;102066.72;10470532;28;20033;-78
2022/06/11 07:28:05;;;;;;;6.22;2.05;;;;;;;23.24;53.76;102067.31;10470464;28;20063;-78
2022/06/11 07:33:09;;;;;;;5.88;2.50;;;;;;;23.22;49.50;102074.38;10424779;28;20055;-77
2022/06/11 07:38:11;;;;;;;7.72;2.78;;;;;;;21.62;54.67;102070.63;10452147;28;20107;-78
2022/06/11 07:43:11;;;;;;;;;;;;;;;20.99;55.21;102079.00;10450536;28;20400;-77
2022/06/11 07:48:13;;;;;;;12.80;4.80;;;;;;;20.17;58.73;102087.53;10485504;28;19924;-78
2022/06/11 07:53:13;;;;;;;6.73;1.80;;;;;;;19.42;59.16;102089.78;10467777;28;20279;-77
2022/06/11 07:58:15;;;;;;;14.95;3.22;;;;;;;19.31;59.70;102092.13;10486275;28;20037;-78
2022/06/11 08:03:18;;;;;;;12.13;2.95;;;;;;;20.06;58.82;102093.47;10451588;28;20044;-78
2022/06/11 08:08:19;;;;;;;10.52;2.90;;;;;;;20.18;57.30;102097.31;10450439;28;20131;-77
2022/06/11 08:13:20;;;;;;;8.18;2.80;;;;;;;19.57;59.34;102106.16;10450514;28;20036;-78
2022/06/11 08:18:22;;;;;;;11.27;2.20;;;;;;;20.32;58.31;102101.25;10467302;28;20155;-77
2022/06/11 08:23:23;;;;;;;8.88;2.33;;;;;;;20.68;57.96;102107.47;10449981;28;20373;-78
2022/06/11 08:28:23;;;;;;;10.07;2.30;;;;;;;19.79;60.51;102102.41;10484304;28;20036;-77
2022/06/11 08:33:24;;;;;;;8.13;2.30;;;;;;;19.15;61.56;102099.59;10450354;28;20040;-78
2022/06/11 08:38:24;;;;;;;5.63;2.05;;;;;;;19.91;61.98;102103.66;10465928;28;20115;-78
2022/06/11 08:43:34;;;;;;;8.88;2.35;;;;;;;20.04;58.87;102104.88;10465760;28;20036;-77
2022/06/11 08:48:51;;;;;;;10.60;2.97;;;;;;;19.58;59.19;102113.28;10465570;28;20036;-78
2022/06/11 08:53:52;;;;;;;16.63;3.33;;;;;;;20.62;57.26;102104.66;10466095;28;20119;-78
2022/06/11 08:59:06;;;;;;;5.03;2.53;;;;;;;22.73;52.98;102106.53;10448396;28;20039;-78
2022/06/11 09:04:13;;;;;;;5.05;2.83;;;;;;;22.55;51.20;102102.69;10466090;28;20048;-77
2022/06/11 09:09:19;;;;;;;9.40;3.42;;;;;;;20.83;52.63;102105.22;10465273;28;20084;-77
2022/06/11 09:14:41;;;;;;;29.23;5.72;;;;;;;20.07;56.27;102100.56;10466078;28;20044;-78
2022/06/11 09:19:50;;;;;;;8.55;3.30;;;;;;;20.29;55.88;102097.59;10483259;28;20036;-78
2022/06/11 09:25:05;;;;;;;11.95;2.72;;;;;;;21.15;54.34;102105.97;10482566;28;20037;-77
2022/06/11 09:30:10;;;;;;;53.95;9.73;;;;;;;22.00;54.59;102105.19;10450172;28;20064;-78
2022/06/11 09:35:23;;;;;;;8.02;2.20;;;;;;;23.27;48.49;102109.19;10465908;28;20037;-77
2022/06/11 09:40:41;;;;;;;8.43;2.13;;;;;;;22.84;49.83;102104.06;10466853;28;20094;-77
2022/06/11 09:46:02;;;;;;;14.63;4.95;;;;;;;23.01;47.19;102110.56;10464808;28;20538;-78
2022/06/11 09:51:26;;;;;;;12.25;3.75;;;;;;;22.94;45.86;102110.44;10466964;28;20047;-77
2022/06/11 09:57:06;;;;;;;12.98;3.28;;;;;;;22.38;44.56;102112.09;10471185;28;20043;-77
2022/06/11 10:02:06;;;;;;;5.80;2.42;;;;;;;23.79;44.80;102105.41;10448238;28;20492;-77
2022/06/11 10:07:10;;;;;;;12.57;4.57;;;;;;;26.38;41.28;102096.56;10448465;28;20056;-78
2022/06/11 10:12:43;;;;;;;8.50;2.45;;;;;;;28.04;36.67;102089.94;10429496;28;20061;-78
2022/06/11 10:17:46;;;;;;;14.73;3.08;;;;;;;27.15;35.39;102105.50;10445866;28;20119;-78
2022/06/11 10:22:52;;;;;;;10.32;3.55;;;;;;;27.19;38.83;102105.47;10447595;28;20045;-77
2022/06/11 10:28:05;;;;;;;13.10;2.95;;;;;;;27.09;37.95;102106.41;10429460;28;20044;-78
2022/06/11 10:33:14;;;;;;;8.82;2.20;;;;;;;27.00;38.32;102106.41;10431229;28;20033;-77
2022/06/11 10:38:27;;;;;;;6.72;2.30;;;;;;;28.81;36.93;102091.19;10446188;28;20125;-78
2022/06/11 10:43:41;;;;;;;6.63;2.60;;;;;;;28.79;35.25;102102.00;10446797;28;20051;-78
2022/06/11 10:48:41;;;;;;;7.50;2.80;;;;;;;28.93;34.61;102098.28;10443181;28;20047;-78
2022/06/11 10:53:51;;;;;;;13.73;2.60;;;;;;;28.73;35.56;102086.75;10445724;28;20063;-78
2022/06/11 10:59:10;;;;;;;6.88;1.90;;;;;;;29.56;34.72;102085.94;10447281;28;20041;-77
2022/06/11 11:04:13;;;;;;;9.98;2.65;;;;;;;29.56;36.76;102083.22;10448316;28;20041;-78
2022/06/11 11:09:20;;;;;;;19.50;3.83;;;;;;;28.58;38.60;102086.88;10461009;28;20369;-78
2022/06/11 11:14:27;;;;;;;10.35;3.95;;;;;;;28.40;39.11;102078.03;10427509;28;20144;-77
2022/06/11 11:19:32;;;;;;;7.97;2.95;;;;;;;28.88;38.66;102081.28;10443450;28;20033;-77
2022/06/11 11:24:49;;;;;;;5.93;2.13;;;;;;;28.63;35.31;102070.69;10469068;28;20064;-78
2022/06/11 11:29:53;;;;;;;6.03;2.45;;;;;;;28.85;36.50;102075.00;10468804;28;20095;-78
2022/06/11 11:34:53;;;;;;;8.55;2.92;;;;;;;28.45;37.75;102071.72;10469372;28;20442;-78
2022/06/11 11:40:02;;;;;;;5.27;1.60;;;;;;;28.89;34.83;102075.84;10466917;28;20117;-78
2022/06/11 11:45:26;;;;;;;7.70;1.42;;;;;;;29.35;34.09;102069.06;10468840;28;20039;-78
2022/06/11 11:50:29;;;;;;;8.88;2.08;;;;;;;29.49;32.63;102065.34;10467433;28;20404;-78
2022/06/11 11:55:35;;;;;;;4.97;1.85;;;;;;;28.81;36.21;102062.47;10450897;28;20384;-78
2022/06/11 12:00:58;;;;;;;9.07;3.15;;;;;;;29.24;35.50;102058.41;10449763;28;20039;-78
2022/06/11 12:05:58;;;;;;;6.05;1.48;;;;;;;30.21;36.19;102054.44;10451260;28;20037;-78
2022/06/11 12:11:01;;;;;;;7.78;2.33;;;;;;;30.07;33.94;102044.75;10450490;28;20036;-78
2022/06/11 12:16:04;;;;;;;8.95;2.35;;;;;;;30.06;33.82;102045.66;10449460;28;20043;-78
2022/06/11 12:21:10;;;;;;;5.95;2.03;;;;;;;30.04;33.56;102050.19;10464492;28;20044;-77
2022/06/11 12:26:24;;;;;;;7.35;2.63;;;;;;;30.37;32.90;102045.16;10449630;28;20067;-78
2022/06/11 12:31:29;;;;;;;7.47;2.30;;;;;;;29.93;33.22;102047.66;10451016;28;20061;-78
2022/06/11 12:37:06;;;;;;;8.77;2.05;;;;;;;29.97;32.50;102040.38;10448866;28;20052;-78
2022/06/11 12:42:18;;;;;;;6.72;2.17;;;;;;;29.47;34.93;102033.00;10481688;28;20048;-76
2022/06/11 12:47:41;;;;;;;6.55;2.20;;;;;;;30.05;32.68;102026.81;10465657;28;20032;-78
2022/06/11 12:53:09;;;;;;;8.60;2.90;;;;;;;30.14;34.50;102035.63;10468225;28;20045;-78
2022/06/11 12:58:35;;;;;;;5.30;2.90;;;;;;;28.58;36.13;102041.09;10483417;28;20041;-78
2022/06/11 13:03:56;;;;;;;3.53;1.63;;;;;;;28.80;35.90;102040.94;10468138;28;20040;-78
2022/06/11 13:09:13;;;;;;;6.53;2.83;;;;;;;28.11;37.33;102032.50;10465782;28;20101;-77
2022/06/11 13:14:22;;;;;;;5.82;2.33;;;;;;;28.46;37.86;102035.81;10466112;28;20169;-78
2022/06/11 13:19:45;;;;;;;6.38;2.42;;;;;;;28.82;36.43;102029.25;10483035;28;20044;-78
2022/06/11 13:25:00;;;;;;;5.20;1.30;;;;;;;29.33;34.64;102035.84;10465065;28;20487;-78
2022/06/11 13:30:15;;;;;;;3.25;1.48;;;;;;;29.70;36.84;102037.19;10484787;28;20127;-78
2022/06/11 13:35:31;;;;;;;6.22;1.75;;;;;;;28.80;36.33;102027.47;10491945;28;20040;-78
2022/06/11 13:40:38;;;;;;;5.18;1.60;;;;;;;29.29;36.73;102028.72;10491245;28;20400;-78
2022/06/11 13:45:47;;;;;;;5.95;1.63;;;;;;;30.28;35.49;102026.41;10490308;28;20063;-78
2022/06/11 13:50:48;;;;;;;3.03;1.55;;;;;;;30.23;34.23;102017.50;10472822;28;20036;-77
2022/06/11 13:55:49;;;;;;;3.77;1.60;;;;;;;30.31;36.30;102015.56;10490894;28;20044;-77
2022/06/11 14:01:20;;;;;;;6.55;1.92;;;;;;;29.75;35.19;102013.72;10456058;28;20469;-77
2022/06/11 14:06:22;;;;;;;3.75;1.58;;;;;;;28.97;38.18;102012.00;10471589;28;20040;-77
2022/06/11 14:11:43;;;;;;;4.57;1.70;;;;;;;28.99;35.22;101994.00;10415262;28;20037;-78
2022/06/11 14:16:44;;;;;;;4.73;2.13;;;;;;;28.74;37.06;101993.38;10470686;28;20451;-77
2022/06/11 14:21:48;;;;;;;4.27;1.47;;;;;;;28.97;36.45;101990.44;10467584;28;20369;-76
2022/06/11 14:26:53;;;;;;;5.13;2.05;;;;;;;28.57;38.02;101991.75;10470287;28;20045;-75
2022/06/11 14:32:24;;;;;;;7.25;2.53;;;;;;;27.86;38.55;101984.25;10489356;28;20048;-75
2022/06/11 14:37:26;;;;;;;4.88;2.03;;;;;;;26.94;39.84;101983.78;10461654;28;20538;-75
2022/06/11 14:42:49;;;;;;;5.40;1.30;;;;;;;26.30;39.80;101988.34;10469055;28;20047;-75
2022/06/11 14:47:58;;;;;;;3.70;1.52;;;;;;;26.64;41.49;101981.13;10464103;28;20048;-75
2022/06/11 14:53:02;;;;;;;3.25;1.35;;;;;;;27.00;41.52;101986.44;10452494;28;20036;-76
2022/06/11 14:58:26;;;;;;;5.95;2.17;;;;;;;26.88;41.19;101975.75;10453834;28;20060;-76
2022/06/11 15:03:39;;;;;;;9.00;3.35;;;;;;;26.15;41.07;101971.34;10460741;28;20388;-75
2022/06/11 15:08:58;;;;;;;7.22;1.65;;;;;;;25.54;41.63;101969.41;10452763;28;20095;-75
2022/06/11 15:14:18;;;;;;;3.95;1.50;;;;;;;25.25;43.24;101964.84;10487537;28;20040;-76
2022/06/11 15:19:20;;;;;;;3.70;1.35;;;;;;;24.68;43.51;101970.75;10486407;28;20083;-76
2022/06/11 15:24:40;;;;;;;6.72;1.65;;;;;;;24.69;44.54;101959.16;10449824;28;20041;-76
2022/06/11 15:29:41;;;;;;;6.80;2.55;;;;;;;24.41;45.29;101967.91;10402619;28;20460;-77
2022/06/11 15:34:48;;;;;;;10.37;2.97;;;;;;;24.54;46.54;101971.56;10436796;28;20040;-76
2022/06/11 15:39:56;;;;;;;12.90;4.25;;;;;;;24.46;45.46;101966.16;10442570;28;20563;-75
2022/06/11 15:44:57;;;;;;;6.00;2.22;;;;;;;23.92;45.74;101963.00;10467434;28;20047;-74
2022/06/11 15:50:04;;;;;;;11.07;2.93;;;;;;;23.23;48.91;101968.44;10444216;28;20075;-76
2022/06/11 15:55:33;;;;;;;9.32;1.85;;;;;;;23.38;50.67;101970.47;10478489;28;20087;-77
2022/06/11 16:00:34;;;;;;;10.18;2.53;;;;;;;23.63;47.75;101958.25;10423251;28;20127;-78
2022/06/11 16:05:38;;;;;;;6.93;1.63;;;;;;;23.67;47.46;101959.19;10479483;28;20048;-77
2022/06/11 16:10:39;;;;;;;6.30;1.70;;;;;;;23.41;48.33;101958.00;10463346;28;20024;-77
2022/06/11 16:15:39;;;;;;;26.70;3.57;;;;;;;23.42;48.02;101951.78;10442483;28;20061;-75
2022/06/11 16:20:40;;;;;;;7.57;3.23;;;;;;;23.71;48.33;101953.00;10442859;28;20503;-76
2022/06/11 16:25:46;;;;;;;6.03;2.67;;;;;;;23.80;49.28;101968.22;10439535;28;20037;-77
2022/06/11 16:30:47;;;;;;;5.30;1.52;;;;;;;22.97;47.37;101969.00;10447696;28;20094;-75
2022/06/11 16:35:55;;;;;;;5.27;1.87;;;;;;;22.51;49.78;101969.25;10371421;28;20091;-76
2022/06/11 16:41:07;;;;;;;11.32;3.28;;;;;;;22.95;49.75;101965.41;10446988;28;20036;-76
2022/06/11 16:46:07;;;;;;;11.77;4.53;;;;;;;23.35;50.69;101960.63;10463285;28;20123;-76
2022/06/11 16:56:46;;;;;;;86.85;76.80;;;;;;;22.92;50.93;101973.38;10372044;28;20049;-76
2022/06/11 17:01:49;;;;;;;10.45;4.40;;;;;;;23.18;49.33;101965.72;10461838;28;20087;-75
2022/06/11 17:07:03;;;;;;;6.95;3.22;;;;;;;23.16;49.28;101970.16;10448201;28;20093;-76
2022/06/11 17:12:15;;;;;;;7.07;1.88;;;;;;;22.98;49.81;101974.38;10439946;28;20052;-75
2022/06/11 17:17:15;;;;;;;5.70;2.72;;;;;;;22.61;51.44;101983.59;10438115;28;20047;-76
2022/06/11 17:22:16;;;;;;;6.37;1.67;;;;;;;22.50;51.14;101979.00;10431585;28;20040;-76
2022/06/11 17:27:27;;;;;;;6.43;2.30;;;;;;;22.77;50.25;101985.63;10403274;28;20558;-75
2022/06/11 17:32:28;;;;;;;8.10;1.85;;;;;;;22.78;49.60;101974.06;10395953;28;20038;-76
2022/06/11 17:37:31;;;;;;;6.00;2.17;;;;;;;22.39;51.75;101978.81;10398762;28;20054;-76
2022/06/11 17:42:32;;;;;;;6.05;2.05;;;;;;;21.91;51.60;101977.97;10365834;28;20050;-76
2022/06/11 17:47:32;;;;;;;30.73;21.75;;;;;;;21.46;52.12;101986.84;10400113;28;20125;-76
2022/06/11 17:52:38;;;;;;;11.93;5.30;;;;;;;21.33;52.95;101978.59;10398614;28;20049;-76
2022/06/11 17:57:39;;;;;;;6.25;1.70;;;;;;;21.32;52.90;101979.47;10382884;28;20124;-76
2022/06/11 18:02:54;;;;;;;6.45;1.50;;;;;;;21.30;52.83;101980.31;10398746;28;20029;-76
2022/06/11 18:07:55;;;;;;;36.58;28.25;;;;;;;21.13;54.13;101971.09;10386820;28;20048;-77
2022/06/11 18:12:55;;;;;;;5.47;1.80;;;;;;;20.81;53.90;101981.91;10421844;28;20115;-76
2022/06/11 18:17:56;;;;;;;4.45;1.75;;;;;;;20.51;54.46;101987.41;10425395;28;20037;-76
2022/06/11 18:28:15;;;;;;;8.90;3.03;;;;;;;20.05;56.19;101980.06;10432993;28;20473;-77
2022/06/11 18:33:16;;;;;;;4.53;1.50;;;;;;;19.78;57.89;101981.09;10428387;28;20151;-76
2022/06/11 18:38:17;;;;;;;29.08;20.63;;;;;;;19.59;59.90;101987.63;10442075;28;20477;-78
2022/06/11 18:43:24;;;;;;;5.80;3.60;;;;;;;19.37;60.92;101989.66;10420507;28;20571;-78
2022/06/11 18:48:24;;;;;;;13.50;2.78;;;;;;;19.16;64.36;101989.03;10435061;28;20096;-77
2022/06/11 18:53:25;;;;;;;7.60;1.92;;;;;;;18.93;65.64;101994.50;10467472;28;20106;-78
2022/06/11 18:58:25;;;;;;;96.38;76.57;;;;;;;18.72;65.71;101998.28;10456856;28;20098;-77
2022/06/11 19:03:26;;;;;;;19.60;13.43;;;;;;;18.46;65.12;101997.44;10470533;28;20163;-78
2022/06/11 19:08:27;;;;;;;8.03;2.97;;;;;;;18.26;68.63;102000.31;10490102;28;20047;-78
2022/06/11 19:13:28;;;;;;;14.02;9.93;;;;;;;17.98;70.58;101996.69;10472197;28;20439;-79
2022/06/11 19:18:29;;;;;;;43.28;30.77;;;;;;;17.78;71.96;101997.72;10477652;28;20068;-77
2022/06/11 19:23:29;;;;;;;62.55;46.10;;;;;;;17.60;73.21;102005.03;10489933;28;20045;-77
2022/06/11 19:28:30;;;;;;;22.15;14.57;;;;;;;17.31;74.47;102004.84;10476137;28;20466;-77
2022/06/11 19:33:31;;;;;;;5.70;2.08;;;;;;;17.03;75.75;102009.06;10447606;28;20079;-76
2022/06/11 19:38:33;;;;;;;143.43;95.13;;;;;;;16.68;76.15;102000.59;10431309;28;20071;-77
2022/06/11 19:43:34;;;;;;;;;;;;;;;16.48;78.20;102017.38;10456446;28;20047;-77
2022/06/11 19:48:35;;;;;;;12.63;4.40;;;;;;;16.28;79.36;102015.72;10452426;28;19920;-77
2022/06/11 19:53:37;;;;;;;84.75;72.55;;;;;;;16.09;80.56;102016.66;10420234;28;20181;-77
2022/06/11 19:58:38;;;;;;;10.73;6.70;;;;;;;15.82;81.66;102024.25;10441959;28;20040;-78
2022/06/11 20:03:39;;;;;;;11.23;2.85;;;;;;;15.62;82.41;102031.25;10432994;28;20287;-77
2022/06/11 20:08:41;;;;;;;10.85;4.70;;;;;;;15.38;83.02;102043.41;10483228;28;20087;-75
2022/06/11 20:13:46;;;;;;;7.45;2.97;;;;;;;15.15;83.79;102037.03;10409705;28;20123;-75
2022/06/11 20:18:46;;;;;;;20.88;8.45;;;;;;;14.93;84.61;102051.81;10467640;28;20032;-75
2022/06/11 20:23:49;;;;;;;7.57;4.35;;;;;;;14.71;84.88;102060.41;10451269;28;20064;-76
2022/06/11 20:28:50;;;;;;;7.18;3.08;;;;;;;14.69;83.92;102069.94;10467835;28;20036;-76
2022/06/11 20:33:50;;;;;;;10.00;3.00;;;;;;;14.58;84.29;102076.41;10463563;28;20120;-77
2022/06/11 20:38:51;;;;;;;8.00;2.15;;;;;;;14.36;84.46;102073.56;10464487;28;20126;-76
2022/06/11 20:43:52;;;;;;;6.32;2.40;;;;;;;14.23;85.13;102071.09;10517625;28;20064;-77
2022/06/11 20:48:53;;;;;;;8.57;4.10;;;;;;;14.08;86.71;102076.50;10462975;28;20194;-76
2022/06/11 20:53:54;;;;;;;7.10;2.55;;;;;;;13.94;86.85;102078.38;10483723;28;20067;-77
2022/06/11 20:58:54;;;;;;;6.95;3.38;;;;;;;13.87;88.26;102071.91;10466387;28;20159;-77
2022/06/11 21:03:55;;;;;;;7.90;3.90;;;;;;;13.81;90.29;102076.84;10482794;28;20055;-77
2022/06/11 21:14:14;;;;;;;10.43;4.18;;;;;;;13.69;91.03;102087.59;10468125;28;20039;-76
2022/06/11 21:19:15;;;;;;;10.65;4.13;;;;;;;13.62;91.66;102089.00;10484077;28;20034;-76
2022/06/11 21:24:15;;;;;;;11.40;4.60;;;;;;;13.51;91.58;102090.13;10464270;28;20190;-77
2022/06/11 21:29:16;;;;;;;13.45;5.07;;;;;;;13.49;92.05;102094.41;10465194;28;20112;-76
2022/06/11 21:34:16;;;;;;;12.95;6.15;;;;;;;13.56;92.00;102087.75;10451261;28;20041;-77
2022/06/11 21:39:17;;;;;;;25.90;8.63;;;;;;;13.55;91.45;102100.00;10461965;28;20067;-77
2022/06/11 21:44:20;;;;;;;15.20;6.57;;;;;;;13.49;90.87;102110.19;10470636;28;20044;-77
2022/06/11 21:49:21;;;;;;;15.93;5.65;;;;;;;13.33;91.14;102111.91;10462948;28;20127;-76
2022/06/11 21:54:21;;;;;;;11.73;5.35;;;;;;;13.18;91.74;102104.06;10471299;28;20052;-76
2022/06/11 21:59:22;;;;;;;11.05;5.13;;;;;;;12.98;92.46;102107.25;10440816;28;20051;-76
2022/06/11 22:04:24;;;;;;;9.52;5.10;;;;;;;12.80;93.37;102104.50;10503083;28;20173;-76
2022/06/11 22:09:26;;;;;;;32.30;9.27;;;;;;;12.70;94.58;102103.94;10445918;28;20400;-75
2022/06/11 22:14:28;;;;;;;15.60;6.60;;;;;;;12.65;95.24;102112.38;10409930;28;20391;-76
2022/06/11 22:19:28;;;;;;;;;;;;;;;12.65;95.61;102102.78;10439237;28;20041;-75
2022/06/11 22:24:39;;;;;;;15.60;7.68;;;;;;;12.55;96.48;102122.31;10455212;28;19920;-76
2022/06/11 22:29:40;;;;;;;18.13;7.25;;;;;;;12.49;96.89;102111.44;10431269;28;20099;-76
2022/06/11 22:34:40;;;;;;;13.43;6.50;;;;;;;12.34;96.41;102120.22;10453816;28;20036;-76
2022/06/11 22:39:42;;;;;;;16.92;6.25;;;;;;;12.29;97.36;102121.66;10470386;28;20056;-76
2022/06/11 22:44:43;;;;;;;12.52;5.45;;;;;;;12.22;98.24;102129.97;10437704;28;20495;-76
2022/06/11 22:49:43;;;;;;;19.13;9.40;;;;;;;12.12;98.13;102128.53;10489369;28;20040;-76
2022/06/11 22:54:44;;;;;;;15.55;6.03;;;;;;;12.08;98.57;102130.84;10461545;28;20051;-76
2022/06/11 22:59:45;;;;;;;14.77;7.28;;;;;;;11.97;98.12;102133.66;10429080;28;20033;-76
2022/06/11 23:04:46;;;;;;;10.55;6.82;;;;;;;11.81;97.94;102130.91;10440123;28;20101;-76
2022/06/11 23:09:47;;;;;;;12.30;5.83;;;;;;;11.85;98.73;102125.03;10487139;28;20063;-76
2022/06/11 23:14:47;;;;;;;13.88;6.43;;;;;;;11.71;98.49;102124.19;10452880;28;20047;-76
2022/06/11 23:19:48;;;;;;;12.60;6.90;;;;;;;11.64;98.63;102124.59;10462558;28;20036;-75
2022/06/11 23:24:48;;;;;;;21.60;6.70;;;;;;;11.54;98.33;102126.66;10417666;28;20037;-76
2022/06/11 23:29:49;;;;;;;14.40;6.50;;;;;;;11.35;97.86;102124.53;10411688;28;20132;-76
2022/06/11 23:34:49;;;;;;;13.55;5.72;;;;;;;11.17;98.12;102113.78;10467958;28;20058;-76